createdAt,value
2022-11-17T00:00:38.189Z,281.40
2022-11-17T00:01:38.093Z,292.20
2022-11-17T00:02:38.064Z,255.00
2022-11-17T00:03:38.143Z,276.00
2022-11-17T00:04:37.817Z,321.60
2022-11-17T00:05:37.727Z,283.70
2022-11-17T00:06:37.635Z,294.60
2022-11-17T00:07:37.570Z,345.10
2022-11-17T00:08:37.555Z,370.40
2022-11-17T00:09:37.357Z,297.10
2022-11-17T00:10:37.249Z,311.00
2022-11-17T00:11:37.157Z,323.90
2022-11-17T00:12:37.067Z,290.80
2022-11-17T00:13:37.251Z,372.70
2022-11-17T00:14:36.920Z,408.80
2022-11-17T00:15:36.798Z,379.20
2022-11-17T00:16:36.729Z,376.30
2022-11-17T00:17:36.620Z,347.70
2022-11-17T00:18:36.556Z,350.70
2022-11-17T00:19:36.468Z,394.40
2022-11-17T00:20:36.366Z,383.80
2022-11-17T00:21:36.262Z,294.50
2022-11-17T00:22:36.179Z,337.30
2022-11-17T00:23:36.279Z,354.80
2022-11-17T00:24:35.991Z,332.50
2022-11-17T00:25:35.912Z,328.10
2022-11-17T00:26:35.824Z,338.80
2022-11-17T00:27:35.742Z,325.20
2022-11-17T00:28:35.641Z,321.00
2022-11-17T00:29:39.126Z,243.10
2022-11-17T00:30:35.483Z,293.30
2022-11-17T00:31:35.372Z,297.80
2022-11-17T00:32:35.283Z,386.70
2022-11-17T00:33:35.543Z,351.60
2022-11-17T00:34:35.096Z,302.10
2022-11-17T00:35:35.013Z,348.30
2022-11-17T00:36:34.937Z,314.20
2022-11-17T00:37:34.827Z,390.50
2022-11-17T00:38:34.752Z,300.00
2022-11-17T00:39:34.654Z,354.00
2022-11-17T00:40:34.589Z,335.60
2022-11-17T00:41:34.465Z,383.90
2022-11-17T00:42:34.390Z,377.10
2022-11-17T00:43:34.550Z,391.90
2022-11-17T00:44:34.192Z,397.30
2022-11-17T00:45:34.115Z,412.70
2022-11-17T00:46:34.004Z,395.10
2022-11-17T00:47:33.925Z,341.70
2022-11-17T00:48:33.817Z,396.30
2022-11-17T00:49:33.737Z,399.10
2022-11-17T00:50:33.676Z,400.10
2022-11-17T00:51:33.556Z,374.30
2022-11-17T00:52:33.473Z,406.50
2022-11-17T00:53:33.802Z,428.40
2022-11-17T00:54:33.292Z,333.60
2022-11-17T00:55:33.230Z,347.10
2022-11-17T00:56:33.136Z,344.60
2022-11-17T00:57:33.035Z,393.70
2022-11-17T00:58:32.930Z,341.90
2022-11-17T00:59:32.848Z,362.30
2022-11-17T01:00:32.752Z,357.60
2022-11-17T01:01:32.722Z,425.00
2022-11-17T01:02:32.572Z,385.60
2022-11-17T01:03:32.684Z,454.60
2022-11-17T01:04:32.379Z,401.80
2022-11-17T01:05:33.277Z,350.60
2022-11-17T01:06:32.221Z,303.20
2022-11-17T01:07:32.163Z,416.70
2022-11-17T01:08:32.032Z,376.10
2022-11-17T01:09:31.932Z,386.50
2022-11-17T01:10:31.847Z,361.70
2022-11-17T01:11:31.772Z,325.40
2022-11-17T01:12:31.664Z,339.30
2022-11-17T01:13:31.688Z,364.10
2022-11-17T01:14:31.490Z,332.70
2022-11-17T01:15:31.391Z,376.70
2022-11-17T01:16:31.324Z,320.20
2022-11-17T01:17:31.242Z,296.80
2022-11-17T01:18:31.134Z,330.50
2022-11-17T01:19:31.045Z,338.90
2022-11-17T01:20:30.946Z,310.00
2022-11-17T01:21:30.864Z,313.00
2022-11-17T01:22:30.782Z,318.20
2022-11-17T01:23:30.684Z,325.30
2022-11-17T01:24:30.588Z,303.00
2022-11-17T01:25:30.504Z,320.30
2022-11-17T01:26:30.424Z,286.80
2022-11-17T01:27:30.348Z,295.40
2022-11-17T01:28:30.240Z,298.80
2022-11-17T01:29:30.134Z,294.50
2022-11-17T01:30:30.045Z,271.70
2022-11-17T01:31:29.990Z,274.60
2022-11-17T01:32:29.874Z,301.10
2022-11-17T01:33:29.804Z,283.50
2022-11-17T01:34:29.917Z,262.30
2022-11-17T01:35:29.818Z,255.60
2022-11-17T01:36:29.602Z,246.30
2022-11-17T01:37:29.569Z,231.20
2022-11-17T01:38:30.670Z,259.70
2022-11-17T01:39:29.438Z,259.40
2022-11-17T01:40:29.349Z,240.80
2022-11-17T01:41:29.246Z,225.10
2022-11-17T01:42:29.423Z,233.30
2022-11-17T01:43:29.244Z,230.70
2022-11-17T01:44:28.933Z,242.60
2022-11-17T01:45:28.932Z,244.10
2022-11-17T01:46:28.688Z,241.90
2022-11-17T01:47:28.658Z,260.90
2022-11-17T01:48:28.549Z,255.80
2022-11-17T01:49:35.637Z,239.80
2022-11-17T01:50:28.350Z,270.20
2022-11-17T01:51:28.467Z,253.10
2022-11-17T01:52:28.174Z,244.10
2022-11-17T01:53:29.024Z,257.40
2022-11-17T01:54:28.138Z,256.90
2022-11-17T01:55:28.155Z,265.00
2022-11-17T01:56:27.804Z,258.90
2022-11-17T01:57:27.742Z,267.40
2022-11-17T01:58:27.771Z,274.10
2022-11-17T01:59:27.586Z,283.60
2022-11-17T02:00:27.485Z,299.00
2022-11-17T02:01:27.439Z,298.10
2022-11-17T02:02:27.445Z,280.30
2022-11-17T02:03:27.256Z,275.60
2022-11-17T02:04:27.212Z,319.10
2022-11-17T02:05:27.877Z,299.90
2022-11-17T02:06:27.224Z,271.70
2022-11-17T02:07:27.107Z,367.30
2022-11-17T02:08:26.872Z,345.10
2022-11-17T02:09:26.738Z,332.70
2022-11-17T02:10:26.743Z,298.90
2022-11-17T02:11:26.573Z,334.10
2022-11-17T02:12:26.568Z,320.30
2022-11-17T02:13:26.414Z,312.20
2022-11-17T02:14:26.310Z,349.20
2022-11-17T02:15:26.252Z,315.10
2022-11-17T02:16:26.201Z,315.70
2022-11-17T02:17:26.303Z,364.20
2022-11-17T02:18:25.929Z,312.60
2022-11-17T02:19:25.832Z,334.80
2022-11-17T02:20:25.851Z,351.10
2022-11-17T02:21:25.765Z,340.30
2022-11-17T02:22:25.650Z,377.90
2022-11-17T02:23:25.697Z,334.80
2022-11-17T02:24:25.502Z,263.30
2022-11-17T02:25:27.105Z,304.00
2022-11-17T02:26:25.319Z,331.10
2022-11-17T02:27:25.133Z,321.20
2022-11-17T02:28:25.172Z,317.60
2022-11-17T02:29:24.966Z,319.90
2022-11-17T02:30:24.813Z,286.50
2022-11-17T02:31:24.745Z,293.00
2022-11-17T02:32:24.643Z,298.00
2022-11-17T02:33:24.553Z,311.90
2022-11-17T02:34:24.466Z,282.90
2022-11-17T02:35:24.374Z,298.50
2022-11-17T02:36:24.304Z,310.70
2022-11-17T02:37:24.248Z,293.00
2022-11-17T02:38:24.094Z,291.40
2022-11-17T02:39:24.008Z,309.00
2022-11-17T02:40:23.903Z,302.00
2022-11-17T02:41:23.827Z,311.10
2022-11-17T02:42:23.744Z,335.80
2022-11-17T02:43:23.654Z,351.60
2022-11-17T02:44:23.554Z,304.20
2022-11-17T02:45:23.474Z,301.00
2022-11-17T02:46:23.364Z,294.60
2022-11-17T02:47:23.310Z,290.20
2022-11-17T02:48:23.199Z,264.80
2022-11-17T02:49:23.115Z,293.00
2022-11-17T02:50:27.994Z,266.10
2022-11-17T02:51:23.935Z,279.50
2022-11-17T02:52:22.856Z,298.50
2022-11-17T02:53:22.754Z,317.30
2022-11-17T02:54:22.674Z,297.30
2022-11-17T02:55:22.573Z,292.90
2022-11-17T02:56:22.486Z,297.40
2022-11-17T02:57:22.399Z,264.10
2022-11-17T02:58:22.287Z,267.20
2022-11-17T02:59:22.200Z,246.90
2022-11-17T03:00:22.101Z,273.10
2022-11-17T03:01:22.116Z,281.80
2022-11-17T03:02:21.932Z,255.80
2022-11-17T03:03:21.818Z,266.10
2022-11-17T03:04:21.738Z,281.40
2022-11-17T03:05:21.621Z,256.60
2022-11-17T03:06:21.522Z,244.50
2022-11-17T03:07:21.540Z,259.40
2022-11-17T03:08:21.301Z,284.80
2022-11-17T03:09:21.249Z,286.90
2022-11-17T03:10:21.120Z,273.20
2022-11-17T03:11:21.028Z,260.70
2022-11-17T03:12:20.959Z,286.30
2022-11-17T03:13:20.872Z,293.10
2022-11-17T03:14:20.750Z,290.10
2022-11-17T03:15:20.641Z,278.80
2022-11-17T03:16:20.530Z,278.00
2022-11-17T03:17:20.451Z,276.40
2022-11-17T03:18:20.370Z,250.40
2022-11-17T03:19:20.241Z,275.70
2022-11-17T03:20:20.142Z,277.60
2022-11-17T03:21:20.073Z,268.90
2022-11-17T03:22:19.961Z,296.70
2022-11-17T03:23:19.893Z,238.60
2022-11-17T03:24:19.822Z,258.30
2022-11-17T03:25:19.703Z,256.20
2022-11-17T03:26:19.610Z,268.80
2022-11-17T03:27:19.529Z,259.60
2022-11-17T03:28:19.474Z,274.60
2022-11-17T03:29:19.361Z,276.00
2022-11-17T03:30:19.243Z,294.20
2022-11-17T03:31:19.146Z,283.90
2022-11-17T03:32:19.047Z,274.80
2022-11-17T03:33:18.965Z,286.70
2022-11-17T03:34:18.876Z,274.40
2022-11-17T03:35:18.756Z,267.30
2022-11-17T03:36:18.663Z,282.60
2022-11-17T03:37:18.555Z,320.00
2022-11-17T03:38:18.478Z,298.10
2022-11-17T03:39:18.397Z,280.80
2022-11-17T03:40:18.286Z,315.10
2022-11-17T03:41:18.190Z,309.40
2022-11-17T03:42:18.105Z,308.90
2022-11-17T03:43:18.015Z,326.60
2022-11-17T03:44:17.933Z,261.30
2022-11-17T03:45:17.815Z,296.90
2022-11-17T03:46:17.729Z,288.60
2022-11-17T03:47:17.617Z,322.30
2022-11-17T03:48:17.540Z,271.40
2022-11-17T03:49:17.450Z,301.40
2022-11-17T03:50:17.347Z,304.30
2022-11-17T03:51:17.259Z,310.00
2022-11-17T03:52:17.170Z,301.20
2022-11-17T03:53:17.099Z,310.50
2022-11-17T03:54:16.980Z,290.80
2022-11-17T03:55:16.909Z,313.10
2022-11-17T03:56:16.815Z,277.20
2022-11-17T03:57:16.730Z,318.00
2022-11-17T03:58:16.626Z,296.00
2022-11-17T03:59:16.545Z,293.50
2022-11-17T04:00:16.469Z,284.40
2022-11-17T04:01:16.404Z,293.30
2022-11-17T04:02:16.262Z,296.70
2022-11-17T04:03:16.193Z,292.30
2022-11-17T04:04:16.090Z,290.50
2022-11-17T04:05:16.009Z,270.60
2022-11-17T04:06:15.904Z,290.90
2022-11-17T04:07:15.892Z,268.30
2022-11-17T04:08:15.722Z,302.50
2022-11-17T04:09:19.903Z,282.00
2022-11-17T04:10:16.572Z,294.70
2022-11-17T04:11:15.471Z,296.80
2022-11-17T04:12:15.371Z,272.00
2022-11-17T04:13:15.280Z,254.40
2022-11-17T04:14:15.193Z,259.60
2022-11-17T04:15:15.123Z,267.30
2022-11-17T04:16:15.020Z,254.30
2022-11-17T04:17:14.924Z,246.50
2022-11-17T04:18:14.832Z,258.80
2022-11-17T04:19:14.746Z,279.40
2022-11-17T04:20:14.683Z,256.90
2022-11-17T04:21:14.591Z,265.10
2022-11-17T04:22:14.479Z,263.60
2022-11-17T04:23:14.523Z,250.20
2022-11-17T04:24:14.316Z,249.00
2022-11-17T04:25:14.254Z,239.20
2022-11-17T04:26:14.131Z,270.80
2022-11-17T04:27:14.076Z,262.50
2022-11-17T04:28:13.969Z,243.90
2022-11-17T04:29:13.849Z,245.10
2022-11-17T04:30:13.777Z,244.70
2022-11-17T04:31:13.688Z,264.50
2022-11-17T04:32:13.583Z,271.90
2022-11-17T04:33:13.504Z,258.60
2022-11-17T04:34:13.396Z,265.10
2022-11-17T04:35:13.349Z,232.50
2022-11-17T04:36:13.226Z,244.80
2022-11-17T04:37:13.148Z,251.30
2022-11-17T04:38:13.067Z,245.70
2022-11-17T04:39:12.961Z,256.30
2022-11-17T04:40:12.878Z,236.00
2022-11-17T04:41:12.797Z,249.50
2022-11-17T04:42:12.698Z,269.30
2022-11-17T04:43:12.630Z,267.10
2022-11-17T04:44:12.550Z,272.20
2022-11-17T04:45:12.467Z,273.60
2022-11-17T04:46:12.345Z,294.00
2022-11-17T04:47:12.322Z,285.60
2022-11-17T04:48:12.179Z,285.10
2022-11-17T04:49:12.061Z,249.60
2022-11-17T04:50:11.994Z,278.30
2022-11-17T04:51:11.889Z,270.10
2022-11-17T04:52:11.790Z,272.60
2022-11-17T04:53:12.082Z,270.20
2022-11-17T04:54:11.602Z,285.30
2022-11-17T04:55:11.491Z,253.10
2022-11-17T04:56:11.418Z,254.10
2022-11-17T04:57:11.301Z,276.20
2022-11-17T04:58:11.206Z,285.50
2022-11-17T04:59:11.112Z,320.90
2022-11-17T05:00:10.995Z,290.80
2022-11-17T05:01:10.932Z,278.30
2022-11-17T05:02:10.859Z,299.60
2022-11-17T05:03:10.735Z,306.00
2022-11-17T05:04:10.643Z,283.20
2022-11-17T05:05:10.545Z,313.70
2022-11-17T05:06:10.478Z,290.40
2022-11-17T05:07:10.454Z,303.70
2022-11-17T05:08:10.286Z,269.70
2022-11-17T05:09:10.203Z,288.40
2022-11-17T05:10:10.107Z,262.50
2022-11-17T05:11:10.089Z,266.10
2022-11-17T05:12:09.937Z,286.80
2022-11-17T05:13:09.856Z,265.90
2022-11-17T05:14:09.756Z,273.90
2022-11-17T05:15:09.667Z,278.50
2022-11-17T05:16:09.597Z,265.00
2022-11-17T05:17:11.258Z,317.40
2022-11-17T05:18:09.378Z,307.10
2022-11-17T05:19:09.298Z,289.80
2022-11-17T05:20:09.209Z,256.40
2022-11-17T05:21:09.120Z,275.50
2022-11-17T05:22:09.010Z,296.30
2022-11-17T05:23:08.940Z,234.50
2022-11-17T05:24:08.853Z,268.80
2022-11-17T05:25:08.758Z,238.70
2022-11-17T05:26:08.697Z,257.80
2022-11-17T05:27:08.581Z,275.20
2022-11-17T05:28:08.476Z,260.40
2022-11-17T05:29:08.381Z,283.80
2022-11-17T05:30:08.326Z,255.20
2022-11-17T05:31:08.230Z,267.20
2022-11-17T05:32:08.122Z,262.40
2022-11-17T05:33:08.033Z,243.40
2022-11-17T05:34:07.942Z,258.10
2022-11-17T05:35:07.831Z,270.10
2022-11-17T05:36:07.773Z,245.20
2022-11-17T05:37:07.668Z,250.80
2022-11-17T05:38:07.573Z,274.60
2022-11-17T05:39:07.462Z,251.60
2022-11-17T05:40:07.366Z,243.80
2022-11-17T05:41:07.284Z,257.90
2022-11-17T05:42:07.192Z,259.10
2022-11-17T05:43:07.085Z,253.80
2022-11-17T05:44:07.019Z,272.10
2022-11-17T05:45:06.894Z,262.00
2022-11-17T05:46:06.827Z,232.90
2022-11-17T05:47:06.706Z,243.80
2022-11-17T05:48:06.616Z,220.70
2022-11-17T05:49:06.505Z,228.30
2022-11-17T05:50:06.436Z,222.70
2022-11-17T05:51:06.348Z,206.90
2022-11-17T05:52:06.240Z,214.30
2022-11-17T05:53:06.137Z,217.20
2022-11-17T05:54:06.087Z,200.50
2022-11-17T05:55:05.958Z,208.60
2022-11-17T05:56:05.892Z,231.30
2022-11-17T05:57:05.801Z,197.50
2022-11-17T05:58:05.689Z,206.10
2022-11-17T05:59:05.605Z,220.90
2022-11-17T06:00:05.504Z,183.80
2022-11-17T06:01:05.420Z,184.20
2022-11-17T06:02:05.316Z,179.30
2022-11-17T06:03:05.219Z,182.90
2022-11-17T06:04:05.463Z,200.30
2022-11-17T06:05:05.030Z,199.20
2022-11-17T06:06:04.959Z,186.60
2022-11-17T06:07:04.860Z,212.70
2022-11-17T06:08:04.750Z,208.90
2022-11-17T06:09:04.660Z,211.90
2022-11-17T06:10:04.551Z,193.40
2022-11-17T06:11:04.894Z,202.60
2022-11-17T06:12:06.445Z,204.80
2022-11-17T06:13:04.273Z,190.70
2022-11-17T06:14:04.181Z,192.20
2022-11-17T06:15:04.092Z,209.30
2022-11-17T06:16:03.992Z,227.10
2022-11-17T06:17:03.891Z,206.50
2022-11-17T06:18:03.800Z,223.70
2022-11-17T06:19:03.710Z,190.20
2022-11-17T06:20:03.593Z,219.10
2022-11-17T06:21:03.504Z,204.70
2022-11-17T06:22:12.532Z,214.40
2022-11-17T06:23:04.307Z,195.50
2022-11-17T06:24:03.213Z,188.70
2022-11-17T06:25:03.102Z,210.80
2022-11-17T06:26:03.042Z,195.30
2022-11-17T06:27:02.918Z,210.80
2022-11-17T06:28:02.854Z,202.60
2022-11-17T06:29:02.745Z,220.80
2022-11-17T06:30:02.632Z,212.30
2022-11-17T06:31:02.557Z,203.50
2022-11-17T06:32:02.464Z,199.10
2022-11-17T06:33:02.357Z,185.80
2022-11-17T06:34:02.267Z,192.20
2022-11-17T06:35:02.156Z,220.30
2022-11-17T06:36:02.093Z,196.80
2022-11-17T06:37:01.987Z,201.20
2022-11-17T06:38:01.919Z,202.60
2022-11-17T06:39:01.817Z,201.60
2022-11-17T06:40:01.714Z,191.90
2022-11-17T06:41:01.640Z,198.80
2022-11-17T06:42:01.538Z,198.80
2022-11-17T06:43:01.418Z,209.70
2022-11-17T06:44:01.418Z,185.40
2022-11-17T06:45:01.244Z,211.10
2022-11-17T06:46:01.168Z,190.60
2022-11-17T06:47:01.042Z,185.00
2022-11-17T06:48:00.969Z,189.30
2022-11-17T06:49:00.860Z,199.60
2022-11-17T06:50:00.759Z,206.10
2022-11-17T06:51:00.691Z,202.50
2022-11-17T06:52:00.585Z,216.00
2022-11-17T06:53:00.493Z,191.10
2022-11-17T06:54:00.370Z,201.50
2022-11-17T06:55:00.277Z,204.30
2022-11-17T06:56:00.199Z,185.40
2022-11-17T06:57:00.105Z,178.10
2022-11-17T06:57:59.994Z,223.30
2022-11-17T06:58:59.892Z,195.60
2022-11-17T06:59:59.803Z,183.50
2022-11-17T07:00:59.735Z,203.00
2022-11-17T07:01:59.603Z,204.90
2022-11-17T07:02:59.523Z,191.80
2022-11-17T07:03:59.416Z,226.20
2022-11-17T07:04:59.327Z,209.40
2022-11-17T07:05:59.265Z,206.10
2022-11-17T07:06:59.204Z,202.80
2022-11-17T07:07:59.077Z,215.20
2022-11-17T07:08:58.976Z,190.50
2022-11-17T07:09:58.886Z,218.20
2022-11-17T07:10:58.798Z,208.10
2022-11-17T07:11:58.698Z,195.80
2022-11-17T07:12:58.595Z,192.80
2022-11-17T07:13:58.527Z,227.70
2022-11-17T07:14:58.418Z,208.00
2022-11-17T07:15:58.366Z,217.50
2022-11-17T07:16:58.243Z,205.70
2022-11-17T07:17:58.147Z,208.40
2022-11-17T07:18:58.057Z,216.20
2022-11-17T07:19:57.986Z,209.00
2022-11-17T07:20:57.907Z,207.20
2022-11-17T07:21:57.807Z,226.70
2022-11-17T07:22:57.688Z,223.10
2022-11-17T07:23:57.624Z,212.10
2022-11-17T07:24:57.530Z,211.80
2022-11-17T07:25:57.430Z,208.90
2022-11-17T07:26:57.328Z,213.50
2022-11-17T07:27:57.242Z,182.30
2022-11-17T07:28:57.139Z,192.90
2022-11-17T07:29:57.042Z,158.40
2022-11-17T07:30:56.966Z,164.30
2022-11-17T07:31:56.863Z,154.10
2022-11-17T07:32:56.750Z,169.70
2022-11-17T07:33:56.677Z,145.60
2022-11-17T07:34:56.580Z,152.00
2022-11-17T07:35:56.532Z,151.00
2022-11-17T07:36:56.411Z,146.10
2022-11-17T07:37:56.302Z,159.80
2022-11-17T07:38:56.212Z,147.30
2022-11-17T07:39:56.112Z,155.20
2022-11-17T07:40:56.032Z,152.00
2022-11-17T07:41:55.921Z,155.40
2022-11-17T07:42:55.814Z,181.50
2022-11-17T07:43:55.723Z,154.40
2022-11-17T07:44:55.617Z,160.60
2022-11-17T07:45:55.535Z,159.40
2022-11-17T07:46:55.412Z,157.50
2022-11-17T07:47:55.420Z,163.30
2022-11-17T07:48:55.232Z,122.10
2022-11-17T07:49:55.126Z,158.40
2022-11-17T07:50:55.033Z,151.20
2022-11-17T07:51:54.955Z,177.20
2022-11-17T07:52:54.835Z,145.90
2022-11-17T07:53:54.755Z,169.80
2022-11-17T07:54:54.635Z,138.10
2022-11-17T07:55:54.546Z,157.50
2022-11-17T07:56:54.456Z,163.30
2022-11-17T07:57:54.350Z,157.20
2022-11-17T07:58:54.254Z,158.90
2022-11-17T07:59:54.162Z,154.80
2022-11-17T08:00:54.109Z,155.50
2022-11-17T08:01:53.967Z,163.50
2022-11-17T08:02:53.878Z,162.20
2022-11-17T08:03:53.872Z,152.30
2022-11-17T08:04:53.705Z,151.10
2022-11-17T08:05:53.606Z,142.80
2022-11-17T08:06:53.540Z,150.10
2022-11-17T08:07:53.398Z,147.10
2022-11-17T08:08:53.319Z,156.20
2022-11-17T08:09:53.239Z,153.50
2022-11-17T08:10:53.152Z,141.90
2022-11-17T08:11:53.048Z,151.60
2022-11-17T08:12:52.998Z,136.80
2022-11-17T08:13:52.839Z,127.70
2022-11-17T08:14:52.743Z,131.00
2022-11-17T08:15:52.671Z,140.00
2022-11-17T08:16:52.549Z,148.80
2022-11-17T08:17:52.479Z,138.70
2022-11-17T08:18:52.868Z,144.70
2022-11-17T08:19:52.290Z,146.80
2022-11-17T08:20:52.194Z,139.60
2022-11-17T08:21:52.091Z,145.40
2022-11-17T08:22:51.991Z,150.30
2022-11-17T08:23:51.893Z,155.50
2022-11-17T08:24:51.790Z,142.70
2022-11-17T08:25:51.736Z,142.30
2022-11-17T08:26:51.612Z,142.80
2022-11-17T08:27:51.512Z,124.30
2022-11-17T08:28:56.889Z,112.50
2022-11-17T08:29:52.313Z,135.50
2022-11-17T08:30:51.250Z,121.70
2022-11-17T08:31:51.149Z,114.30
2022-11-17T08:32:51.064Z,129.80
2022-11-17T08:33:50.973Z,118.00
2022-11-17T08:34:50.882Z,109.30
2022-11-17T08:35:50.815Z,110.30
2022-11-17T08:36:50.704Z,115.00
2022-11-17T08:37:50.621Z,105.20
2022-11-17T08:38:50.524Z,103.70
2022-11-17T08:39:50.461Z,116.50
2022-11-17T08:40:50.376Z,105.30
2022-11-17T08:41:50.285Z,101.50
2022-11-17T08:42:50.173Z,99.80
2022-11-17T08:43:50.089Z,96.70
2022-11-17T08:44:49.979Z,97.80
2022-11-17T08:45:49.916Z,103.20
2022-11-17T08:46:49.809Z,91.90
2022-11-17T08:47:49.727Z,96.00
2022-11-17T08:48:53.888Z,104.30
2022-11-17T08:49:50.536Z,95.80
2022-11-17T08:50:49.468Z,99.80
2022-11-17T08:51:49.357Z,89.90
2022-11-17T08:52:49.257Z,86.60
2022-11-17T08:53:49.187Z,86.90
2022-11-17T08:54:49.108Z,88.60
2022-11-17T08:55:49.062Z,84.80
2022-11-17T08:56:48.963Z,85.20
2022-11-17T08:57:48.817Z,95.00
2022-11-17T08:58:48.729Z,88.60
2022-11-17T08:59:48.658Z,96.40
2022-11-17T09:00:48.682Z,79.80
2022-11-17T09:01:48.564Z,101.30
2022-11-17T09:02:48.368Z,96.40
2022-11-17T09:03:48.286Z,92.40
2022-11-17T09:04:48.181Z,90.50
2022-11-17T09:05:48.119Z,90.60
2022-11-17T09:06:47.990Z,99.50
2022-11-17T09:07:48.064Z,94.40
2022-11-17T09:08:47.953Z,102.40
2022-11-17T09:09:47.729Z,101.80
2022-11-17T09:10:47.623Z,99.20
2022-11-17T09:11:47.513Z,97.80
2022-11-17T09:12:47.413Z,93.30
2022-11-17T09:13:47.419Z,82.10
2022-11-17T09:14:47.223Z,95.70
2022-11-17T09:15:47.149Z,99.80
2022-11-17T09:16:47.033Z,86.80
2022-11-17T09:17:46.963Z,80.40
2022-11-17T09:18:46.874Z,80.60
2022-11-17T09:19:46.772Z,87.90
2022-11-17T09:20:46.683Z,91.90
2022-11-17T09:21:46.582Z,90.20
2022-11-17T09:22:46.494Z,88.20
2022-11-17T09:23:46.427Z,95.90
2022-11-17T09:24:46.302Z,95.20
2022-11-17T09:25:46.224Z,83.40
2022-11-17T09:26:46.104Z,99.50
2022-11-17T09:27:46.022Z,93.40
2022-11-17T09:28:45.943Z,87.90
2022-11-17T09:29:45.825Z,78.70
2022-11-17T09:30:45.743Z,77.40
2022-11-17T09:31:45.743Z,87.70
2022-11-17T09:32:45.531Z,84.80
2022-11-17T09:33:45.458Z,82.90
2022-11-17T09:34:45.369Z,86.80
2022-11-17T09:35:45.267Z,83.70
2022-11-17T09:36:45.152Z,76.80
2022-11-17T09:37:45.061Z,79.40
2022-11-17T09:38:44.962Z,85.80
2022-11-17T09:39:44.858Z,64.60
2022-11-17T09:40:44.790Z,82.30
2022-11-17T09:41:44.687Z,82.00
2022-11-17T09:42:44.584Z,74.50
2022-11-17T09:43:44.488Z,94.30
2022-11-17T09:44:44.400Z,78.70
2022-11-17T09:45:44.328Z,83.40
2022-11-17T09:46:44.219Z,88.50
2022-11-17T09:47:44.121Z,89.90
2022-11-17T09:48:44.111Z,82.70
2022-11-17T09:49:43.931Z,84.50
2022-11-17T09:50:43.870Z,82.70
2022-11-17T09:51:43.760Z,89.40
2022-11-17T09:52:43.669Z,84.40
2022-11-17T09:53:43.561Z,82.30
2022-11-17T09:54:43.491Z,83.60
2022-11-17T09:55:43.391Z,73.60
2022-11-17T09:56:43.272Z,86.30
2022-11-17T09:57:43.174Z,68.60
2022-11-17T09:58:43.109Z,72.10
2022-11-17T09:59:42.999Z,73.50
2022-11-17T10:00:42.913Z,89.80
2022-11-17T10:01:42.831Z,80.30
2022-11-17T10:02:42.724Z,86.10
2022-11-17T10:03:45.952Z,88.50
2022-11-17T10:04:42.526Z,80.40
2022-11-17T10:05:42.423Z,79.60
2022-11-17T10:06:42.335Z,85.00
2022-11-17T10:07:42.224Z,78.80
2022-11-17T10:08:42.149Z,84.70
2022-11-17T10:09:42.038Z,89.90
2022-11-17T10:10:41.966Z,95.00
2022-11-17T10:11:41.858Z,87.10
2022-11-17T10:12:41.754Z,84.20
2022-11-17T10:13:41.662Z,81.50
2022-11-17T10:14:41.555Z,65.80
2022-11-17T10:15:41.467Z,71.80
2022-11-17T10:16:41.385Z,75.30
2022-11-17T10:17:41.280Z,73.00
2022-11-17T10:18:41.205Z,71.90
2022-11-17T10:19:41.100Z,69.20
2022-11-17T10:20:41.028Z,57.80
2022-11-17T10:21:40.908Z,74.80
2022-11-17T10:22:40.836Z,75.30
2022-11-17T10:23:46.131Z,73.70
2022-11-17T10:24:41.714Z,80.60
2022-11-17T10:25:40.560Z,83.40
2022-11-17T10:26:40.467Z,80.60
2022-11-17T10:27:40.370Z,83.40
2022-11-17T10:28:40.286Z,80.20
2022-11-17T10:29:40.190Z,82.90
2022-11-17T10:30:40.110Z,71.90
2022-11-17T10:31:40.008Z,68.90
2022-11-17T10:32:43.963Z,67.80
2022-11-17T10:33:40.820Z,70.10
2022-11-17T10:34:41.554Z,60.30
2022-11-17T10:35:39.632Z,65.60
2022-11-17T10:36:39.516Z,67.80
2022-11-17T10:37:39.438Z,64.90
2022-11-17T10:38:39.343Z,69.50
2022-11-17T10:39:39.230Z,62.60
2022-11-17T10:40:39.166Z,69.40
2022-11-17T10:41:39.035Z,66.70
2022-11-17T10:42:38.944Z,58.10
2022-11-17T10:43:38.968Z,65.90
2022-11-17T10:44:38.767Z,68.00
2022-11-17T10:45:38.678Z,73.10
2022-11-17T10:46:46.323Z,80.30
2022-11-17T10:47:39.475Z,68.40
2022-11-17T10:48:38.415Z,72.30
2022-11-17T10:49:38.305Z,72.90
2022-11-17T10:50:38.225Z,69.40
2022-11-17T10:51:38.125Z,77.60
2022-11-17T10:52:38.027Z,74.60
2022-11-17T10:53:44.599Z,68.20
2022-11-17T10:54:38.858Z,76.80
2022-11-17T10:55:37.774Z,69.80
2022-11-17T10:56:37.667Z,79.20
2022-11-17T10:57:37.565Z,65.70
2022-11-17T10:58:37.557Z,74.40
2022-11-17T10:59:37.377Z,71.60
2022-11-17T11:00:37.310Z,83.20
2022-11-17T11:01:37.229Z,71.60
2022-11-17T11:02:37.090Z,83.90
2022-11-17T11:03:37.158Z,78.20
2022-11-17T11:04:36.908Z,82.20
2022-11-17T11:05:36.858Z,78.00
2022-11-17T11:06:36.728Z,83.70
2022-11-17T11:07:36.666Z,75.10
2022-11-17T11:08:36.539Z,89.50
2022-11-17T11:09:36.440Z,77.20
2022-11-17T11:10:36.356Z,82.20
2022-11-17T11:11:36.588Z,82.30
2022-11-17T11:12:36.280Z,88.00
2022-11-17T11:13:36.051Z,74.70
2022-11-17T11:14:35.959Z,87.00
2022-11-17T11:15:35.904Z,85.00
2022-11-17T11:16:35.792Z,90.70
2022-11-17T11:17:35.680Z,90.00
2022-11-17T11:18:35.701Z,93.80
2022-11-17T11:19:35.481Z,90.80
2022-11-17T11:20:35.412Z,85.20
2022-11-17T11:21:35.301Z,80.10
2022-11-17T11:22:35.217Z,88.10
2022-11-17T11:23:35.157Z,90.60
2022-11-17T11:24:35.013Z,79.90
2022-11-17T11:25:34.939Z,98.10
2022-11-17T11:26:34.833Z,103.50
2022-11-17T11:27:34.735Z,115.90
2022-11-17T11:28:34.645Z,114.00
2022-11-17T11:29:34.564Z,108.70
2022-11-17T11:30:34.453Z,107.40
2022-11-17T11:31:34.406Z,99.10
2022-11-17T11:32:34.277Z,112.00
2022-11-17T11:33:34.154Z,112.50
2022-11-17T11:34:34.094Z,111.40
2022-11-17T11:35:33.966Z,101.80
2022-11-17T11:36:33.916Z,112.60
2022-11-17T11:37:33.775Z,105.10
2022-11-17T11:38:33.686Z,112.00
2022-11-17T11:39:33.593Z,108.70
2022-11-17T11:40:33.531Z,119.60
2022-11-17T11:41:33.436Z,107.50
2022-11-17T11:42:33.317Z,128.40
2022-11-17T11:43:33.227Z,123.40
2022-11-17T11:44:33.145Z,124.50
2022-11-17T11:45:33.055Z,134.00
2022-11-17T11:46:32.936Z,129.10
2022-11-17T11:47:32.846Z,108.10
2022-11-17T11:48:32.763Z,121.20
2022-11-17T11:49:32.635Z,125.20
2022-11-17T11:50:35.377Z,131.30
2022-11-17T11:51:33.449Z,133.70
2022-11-17T11:52:32.363Z,133.20
2022-11-17T11:53:32.247Z,140.40
2022-11-17T11:54:32.143Z,133.80
2022-11-17T11:55:32.037Z,118.60
2022-11-17T11:56:31.941Z,135.80
2022-11-17T11:57:31.871Z,135.40
2022-11-17T11:58:31.732Z,113.50
2022-11-17T11:59:31.646Z,106.20
2022-11-17T12:00:31.540Z,106.20
2022-11-17T12:01:31.451Z,109.20
2022-11-17T12:02:31.377Z,110.90
2022-11-17T12:03:31.428Z,118.60
2022-11-17T12:04:31.154Z,120.90
2022-11-17T12:05:31.053Z,112.90
2022-11-17T12:06:30.975Z,140.50
2022-11-17T12:07:30.975Z,134.90
2022-11-17T12:08:30.784Z,134.20
2022-11-17T12:09:30.669Z,134.50
2022-11-17T12:10:30.572Z,150.70
2022-11-17T12:11:30.458Z,161.60
2022-11-17T12:12:30.354Z,132.70
2022-11-17T12:13:30.294Z,142.20
2022-11-17T12:14:30.177Z,135.70
2022-11-17T12:15:30.078Z,147.30
2022-11-17T12:16:29.964Z,156.00
2022-11-17T12:17:29.880Z,153.00
2022-11-17T12:18:29.785Z,138.50
2022-11-17T12:19:29.694Z,141.90
2022-11-17T12:20:29.592Z,153.60
2022-11-17T12:21:29.459Z,162.70
2022-11-17T12:22:29.373Z,166.90
2022-11-17T12:23:29.269Z,162.00
2022-11-17T12:24:29.168Z,157.50
2022-11-17T12:25:29.054Z,139.70
2022-11-17T12:26:28.953Z,153.90
2022-11-17T12:27:28.819Z,158.20
2022-11-17T12:28:28.741Z,149.40
2022-11-17T12:29:28.650Z,158.80
2022-11-17T12:30:28.533Z,148.00
2022-11-17T12:31:28.439Z,135.20
2022-11-17T12:32:28.348Z,144.70